Ashland, Nebraska
Current Conditions -  °F | °C
As of 12:35 PM on Sunday 21 Dec 2014 (Local Time) from KMLE Reporting Station
Overcast Overcast  
Wind Chill: 36°   Ceiling: 900
Heat Index: 42°   Visibility: 7mi
Dew Point: 38°   Wind: 10mph
Humidity: 87%   Direction: 180°S
Pressure: 29.79"   Gusts: 22mph
Location:  41.04°N, 96.37°W
Report Text: KMLE 211835Z AUTO 18009G19KT 7SM OVC009 06/04 A2979 RMK AO2 T00560036
Loading
Personal Weather Stations






























Interactive Weather Map New forecast layout! Learn more

10-Day Weather Forecast

Advertisements
Track Severe Weather on mobile